Time;durP1;ratioP1;P1;durP2;ratioP2;P2;SDS_P1;SDS_P2;PMS_P1;PMS_P2;Temp;Humidity;BMP_temperature;BMP_pressure;BME280_temperature;BME280_humidity;BME280_pressure;Samples;Min_cycle;Max_cycle;Signal;HPM_P1;HPM_P2
2022/10/21 00:01:18;;;;;;;;;;;19.70;70.80;;;;;;4494427;31;20043;-76
2022/10/21 00:03:44;;;;;;;;;;;19.60;70.80;;;;;;4493107;31;19970;-76
2022/10/21 00:06:10;;;;;;;;;;;19.60;70.80;;;;;;4494506;31;20100;-76
2022/10/21 00:08:37;;;;;;;;;;;19.60;70.80;;;;;;4494234;31;19981;-76
2022/10/21 00:11:04;;;;;;;;;;;19.60;70.80;;;;;;4494480;31;20107;-76
2022/10/21 00:13:34;;;;;;;;;;;19.60;70.70;;;;;;4494248;31;19992;-76
2022/10/21 00:15:59;;;;;;;;;;;19.60;70.80;;;;;;4494001;31;20398;-76
2022/10/21 00:18:26;;;;;;;;;;;19.60;70.80;;;;;;4494296;31;20042;-76
2022/10/21 00:20:51;;;;;;;;;;;19.60;70.70;;;;;;4493923;31;20025;-76
2022/10/21 00:23:17;;;;;;;;;;;19.60;70.80;;;;;;4493851;31;20433;-75
2022/10/21 00:25:43;;;;;;;;;;;19.60;70.80;;;;;;4494146;31;19970;-76
2022/10/21 00:28:09;;;;;;;;;;;19.60;70.80;;;;;;4494025;31;20382;-76
2022/10/21 00:30:35;;;;;;;;;;;19.60;70.80;;;;;;4493602;31;19977;-76
2022/10/21 00:33:01;;;;;;;;;;;19.60;70.80;;;;;;4494401;31;19962;-76
2022/10/21 00:35:27;;;;;;;;;;;19.60;70.80;;;;;;4493972;31;19972;-77
2022/10/21 00:37:54;;;;;;;;;;;19.60;70.80;;;;;;4494067;31;19985;-76
2022/10/21 00:40:19;;;;;;;;;;;19.60;70.80;;;;;;4494268;31;19975;-76
2022/10/21 00:42:45;;;;;;;;;;;19.50;70.80;;;;;;4494018;31;19978;-76
2022/10/21 00:45:19;;;;;;;;;;;19.50;70.70;;;;;;4494301;31;20103;-76
2022/10/21 00:47:45;;;;;;;;;;;19.50;70.70;;;;;;4493969;31;19978;-76
2022/10/21 00:50:37;;;;;;;;;;;19.50;70.80;;;;;;4493965;31;20424;-75
2022/10/21 00:53:05;;;;;;;;;;;19.50;70.70;;;;;;4492212;31;19999;-76
2022/10/21 00:55:33;;;;;;;;;;;19.50;70.70;;;;;;4493850;31;19966;-76
2022/10/21 00:57:59;;;;;;;;;;;19.50;70.70;;;;;;4493699;31;19979;-76
2022/10/21 01:00:25;;;;;;;;;;;19.50;70.70;;;;;;4493803;31;20302;-76
2022/10/21 01:02:51;;;;;;;;;;;19.50;70.70;;;;;;4493818;31;19966;-76
2022/10/21 01:05:17;;;;;;;;;;;19.40;70.70;;;;;;4493667;31;20050;-76
2022/10/21 01:07:48;;;;;;;;;;;19.50;70.70;;;;;;4493578;31;20420;-76
2022/10/21 01:10:14;;;;;;;;;;;19.50;70.70;;;;;;4493484;31;20377;-76
2022/10/21 01:12:41;;;;;;;;;;;19.40;70.70;;;;;;4493608;31;20444;-75
2022/10/21 01:15:26;;;;;;;;;;;19.40;70.70;;;;;;4493261;31;20379;-76
2022/10/21 01:18:12;;;;;;;;;;;19.50;70.70;;;;;;4493498;31;20047;-76
2022/10/21 01:20:44;;;;;;;;;;;19.40;70.70;;;;;;4475644;31;19969;-76
2022/10/21 01:23:19;;;;;;;;;;;19.40;70.70;;;;;;4493123;31;19979;-76
2022/10/21 01:25:44;;;;;;;;;;;19.40;71.50;;;;;;4493347;31;20018;-76
2022/10/21 01:28:28;;;;;;;;;;;19.40;70.70;;;;;;4493396;31;20379;-76
2022/10/21 01:30:56;;;;;;;;;;;19.40;70.70;;;;;;4493394;31;20310;-76
2022/10/21 01:33:28;;;;;;;;;;;19.40;70.70;;;;;;4492901;31;20001;-76
2022/10/21 01:35:56;;;;;;;;;;;19.40;70.70;;;;;;4492822;31;20009;-76
2022/10/21 01:38:32;;;;;;;;;;;19.40;70.70;;;;;;4491991;31;19992;-76
2022/10/21 01:41:18;;;;;;;;;;;19.40;70.70;;;;;;4493226;31;19993;-76
2022/10/21 01:43:56;;;;;;;;;;;19.40;70.70;;;;;;4492927;31;19989;-76
2022/10/21 01:46:33;;;;;;;;;;;19.40;70.70;;;;;;4492996;31;20011;-75
2022/10/21 01:49:02;;;;;;;;;;;19.40;70.70;;;;;;4493091;31;19977;-75
2022/10/21 01:51:29;;;;;;;;;;;19.30;70.70;;;;;;4493080;31;19973;-75
2022/10/21 01:53:59;;;;;;;;;;;19.30;70.70;;;;;;4493053;31;19981;-75
2022/10/21 01:56:25;;;;;;;;;;;19.30;70.70;;;;;;4493349;31;20302;-76
2022/10/21 01:58:51;;;;;;;;;;;19.30;70.70;;;;;;4492634;31;19969;-76
2022/10/21 02:01:18;;;;;;;;;;;19.30;70.70;;;;;;4492562;31;20398;-76
2022/10/21 02:03:44;;;;;;;;;;;19.30;70.70;;;;;;4493105;31;20041;-76
2022/10/21 02:06:12;;;;;;;;;;;19.30;70.70;;;;;;4492587;31;20008;-76
2022/10/21 02:08:40;;;;;;;;;;;19.30;70.70;;;;;;4492502;31;20060;-76
2022/10/21 02:11:07;;;;;;;;;;;19.30;70.70;;;;;;4492868;31;20315;-76
2022/10/21 02:13:36;;;;;;;;;;;19.30;70.60;;;;;;4491858;31;20031;-76
2022/10/21 02:16:05;;;;;;;;;;;19.30;70.60;;;;;;4492707;31;19984;-76
2022/10/21 02:18:31;;;;;;;;;;;19.30;70.60;;;;;;4492681;31;19973;-76
2022/10/21 02:21:17;;;;;;;;;;;19.30;70.70;;;;;;4492411;32;19984;-76
2022/10/21 02:23:54;;;;;;;;;;;19.30;70.70;;;;;;4492477;32;19981;-76
2022/10/21 02:26:24;;;;;;;;;;;19.30;70.70;;;;;;4492410;32;19989;-75
2022/10/21 02:28:50;;;;;;;;;;;19.30;70.60;;;;;;4492728;32;19984;-75
2022/10/21 02:31:34;;;;;;;;;;;19.20;70.60;;;;;;4492425;32;19981;-76
2022/10/21 02:34:05;;;;;;;;;;;19.30;70.70;;;;;;4492570;32;19988;-75
2022/10/21 02:36:41;;;;;;;;;;;19.20;70.60;;;;;;4492719;32;19989;-75
2022/10/21 02:39:18;;;;;;;;;;;19.30;70.60;;;;;;4492651;32;20083;-77
2022/10/21 02:41:44;;;;;;;;;;;19.30;71.50;;;;;;4478182;32;19978;-80
2022/10/21 02:44:10;;;;;;;;;;;19.30;70.60;;;;;;4492397;31;19978;-77
2022/10/21 02:46:38;;;;;;;;;;;19.30;70.70;;;;;;4495457;31;19966;-78
2022/10/21 02:49:04;;;;;;;;;;;19.30;70.70;;;;;;4494623;31;19977;-79
2022/10/21 02:51:30;;;;;;;;;;;19.30;70.70;;;;;;4495562;31;19973;-77
2022/10/21 02:53:56;;;;;;;;;;;19.30;70.70;;;;;;4494298;31;19976;-77
2022/10/21 02:56:22;;;;;;;;;;;19.20;70.70;;;;;;4495651;31;19958;-78
2022/10/21 02:58:47;;;;;;;;;;;19.20;70.70;;;;;;4495792;31;20067;-77
2022/10/21 03:01:13;;;;;;;;;;;19.20;70.60;;;;;;4495298;31;19985;-77
2022/10/21 03:03:39;;;;;;;;;;;19.20;70.60;;;;;;4495712;31;20355;-78
2022/10/21 03:06:05;;;;;;;;;;;19.20;70.60;;;;;;4495161;31;20013;-77
2022/10/21 03:08:31;;;;;;;;;;;19.20;70.60;;;;;;4495278;31;20028;-77
2022/10/21 03:10:56;;;;;;;;;;;19.20;70.70;;;;;;4495770;31;20008;-77
2022/10/21 03:13:22;;;;;;;;;;;19.20;70.70;;;;;;4495429;31;20001;-78
2022/10/21 03:15:48;;;;;;;;;;;19.20;70.70;;;;;;4494310;31;19980;-77
2022/10/21 03:18:14;;;;;;;;;;;19.20;70.80;;;;;;4495578;31;20366;-77
2022/10/21 03:20:40;;;;;;;;;;;19.20;70.70;;;;;;4495488;31;19962;-77
2022/10/21 03:23:06;;;;;;;;;;;19.20;70.70;;;;;;4495458;31;19978;-77
2022/10/21 03:25:32;;;;;;;;;;;19.20;70.80;;;;;;4495175;31;20103;-77
2022/10/21 03:27:57;;;;;;;;;;;19.20;70.80;;;;;;4495190;31;20361;-77
2022/10/21 03:30:23;;;;;;;;;;;19.20;70.80;;;;;;4493970;31;20311;-77
2022/10/21 03:32:49;;;;;;;;;;;19.20;70.80;;;;;;4495310;31;19992;-77
2022/10/21 03:35:15;;;;;;;;;;;19.20;70.80;;;;;;4495119;31;20315;-78
2022/10/21 03:37:40;;;;;;;;;;;19.20;70.90;;;;;;4494623;31;19973;-78
2022/10/21 03:40:07;;;;;;;;;;;19.20;70.80;;;;;;4495241;31;19981;-77
2022/10/21 03:42:33;;;;;;;;;;;19.20;70.90;;;;;;4494700;31;20005;-78
2022/10/21 03:44:59;;;;;;;;;;;19.10;70.80;;;;;;4494949;31;20453;-77
2022/10/21 03:47:24;;;;;;;;;;;19.20;70.80;;;;;;4494700;31;19958;-78
2022/10/21 03:49:50;;;;;;;;;;;19.10;70.70;;;;;;4495039;31;19969;-78
2022/10/21 03:52:16;;;;;;;;;;;19.10;70.80;;;;;;4494565;31;20333;-78
2022/10/21 03:54:42;;;;;;;;;;;19.20;70.80;;;;;;4494774;31;20020;-78
2022/10/21 03:57:08;;;;;;;;;;;19.10;70.80;;;;;;4493594;31;20513;-79
2022/10/21 03:59:34;;;;;;;;;;;19.10;70.80;;;;;;4494597;31;19957;-78
2022/10/21 04:01:59;;;;;;;;;;;19.10;70.90;;;;;;4494813;31;19966;-78
2022/10/21 04:04:25;;;;;;;;;;;19.10;70.80;;;;;;4494605;31;19957;-78
2022/10/21 04:06:51;;;;;;;;;;;19.10;70.80;;;;;;4494426;31;20050;-78
2022/10/21 04:09:17;;;;;;;;;;;19.10;70.80;;;;;;4492907;31;20099;-78
2022/10/21 04:11:43;;;;;;;;;;;19.10;70.90;;;;;;4494415;31;20013;-78
2022/10/21 04:14:08;;;;;;;;;;;19.10;70.80;;;;;;4493322;31;20363;-79
2022/10/21 04:16:34;;;;;;;;;;;19.10;70.90;;;;;;4494030;31;20058;-78
2022/10/21 04:19:03;;;;;;;;;;;19.10;70.90;;;;;;4494514;31;20466;-78
2022/10/21 04:21:28;;;;;;;;;;;19.10;70.90;;;;;;4493194;31;19974;-78
2022/10/21 04:23:57;;;;;;;;;;;19.10;70.80;;;;;;4494286;31;20327;-78
2022/10/21 04:26:23;;;;;;;;;;;19.10;70.90;;;;;;4492855;31;20024;-78
2022/10/21 04:28:48;;;;;;;;;;;19.10;70.90;;;;;;4494181;31;19966;-78
2022/10/21 04:31:14;;;;;;;;;;;19.10;70.90;;;;;;4479972;31;19973;-78
2022/10/21 04:33:40;;;;;;;;;;;19.10;70.90;;;;;;4494014;31;20001;-78
2022/10/21 04:36:06;;;;;;;;;;;19.10;70.90;;;;;;4494147;31;20047;-78
2022/10/21 04:38:41;;;;;;;;;;;19.10;70.80;;;;;;4494573;31;19978;-78
2022/10/21 04:41:07;;;;;;;;;;;19.00;70.80;;;;;;4494027;31;20382;-78
2022/10/21 04:43:35;;;;;;;;;;;19.10;70.80;;;;;;4494270;31;20028;-78
2022/10/21 04:46:01;;;;;;;;;;;19.10;70.80;;;;;;4493901;31;19969;-78
2022/10/21 04:48:26;;;;;;;;;;;19.00;70.80;;;;;;4493978;31;20043;-78
2022/10/21 04:50:53;;;;;;;;;;;19.00;70.80;;;;;;4494081;31;19977;-78
2022/10/21 04:53:28;;;;;;;;;;;19.00;70.80;;;;;;4493796;31;19989;-78
2022/10/21 04:55:54;;;;;;;;;;;19.00;70.80;;;;;;4492372;31;20399;-78
2022/10/21 04:58:21;;;;;;;;;;;19.00;70.80;;;;;;4493410;31;19984;-79
2022/10/21 05:00:47;;;;;;;;;;;19.00;70.80;;;;;;4493680;31;20027;-78
2022/10/21 05:03:13;;;;;;;;;;;19.00;70.80;;;;;;4493626;31;20450;-78
2022/10/21 05:05:39;;;;;;;;;;;19.00;70.80;;;;;;4492589;31;20060;-83
2022/10/21 05:08:05;;;;;;;;;;;19.00;70.80;;;;;;4492233;31;20380;-78
2022/10/21 05:10:30;;;;;;;;;;;19.00;70.80;;;;;;4493364;31;20020;-78
2022/10/21 05:12:57;;;;;;;;;;;19.00;70.80;;;;;;4493265;31;19977;-78
2022/10/21 05:15:23;;;;;;;;;;;19.00;70.80;;;;;;4493650;31;19981;-78
2022/10/21 05:17:49;;;;;;;;;;;19.00;70.80;;;;;;4493369;31;20421;-78
2022/10/21 05:20:15;;;;;;;;;;;19.00;70.80;;;;;;4493380;31;19969;-78
2022/10/21 05:22:40;;;;;;;;;;;19.00;70.90;;;;;;4493643;31;19969;-78
2022/10/21 05:25:06;;;;;;;;;;;19.00;70.80;;;;;;4493287;31;19969;-78
2022/10/21 05:27:32;;;;;;;;;;;18.90;70.80;;;;;;4493291;31;20021;-78
2022/10/21 05:29:58;;;;;;;;;;;19.00;70.90;;;;;;4493319;31;20107;-78
2022/10/21 05:32:24;;;;;;;;;;;19.00;70.80;;;;;;4493171;31;19974;-78
2022/10/21 05:34:50;;;;;;;;;;;19.00;70.80;;;;;;4493208;31;19984;-77
2022/10/21 05:37:16;;;;;;;;;;;18.90;70.80;;;;;;4493323;31;19997;-78
2022/10/21 05:39:41;;;;;;;;;;;19.00;70.90;;;;;;4493094;31;19966;-78
2022/10/21 05:42:08;;;;;;;;;;;19.00;70.80;;;;;;4493169;31;20037;-78
2022/10/21 05:44:34;;;;;;;;;;;19.00;70.90;;;;;;4493140;31;20158;-78
2022/10/21 05:47:03;;;;;;;;;;;19.00;70.90;;;;;;4492924;31;20377;-78
2022/10/21 05:49:29;;;;;;;;;;;19.00;70.90;;;;;;4493005;31;19969;-78
2022/10/21 05:51:55;;;;;;;;;;;19.00;70.90;;;;;;4492994;31;20039;-78
2022/10/21 05:54:20;;;;;;;;;;;18.90;70.80;;;;;;4492700;31;20009;-78
2022/10/21 05:56:47;;;;;;;;;;;18.90;70.80;;;;;;4492909;31;20387;-78
2022/10/21 05:59:13;;;;;;;;;;;18.90;70.80;;;;;;4492646;31;19970;-79
2022/10/21 06:01:39;;;;;;;;;;;18.90;70.80;;;;;;4492889;31;19973;-78
2022/10/21 06:04:05;;;;;;;;;;;18.90;70.80;;;;;;4492827;31;20057;-78
2022/10/21 06:06:31;;;;;;;;;;;18.90;70.90;;;;;;4493036;31;19969;-78
2022/10/21 06:08:57;;;;;;;;;;;18.90;70.80;;;;;;4492537;31;19966;-79
2022/10/21 06:11:23;;;;;;;;;;;18.90;70.80;;;;;;4492733;31;20400;-78
2022/10/21 06:13:48;;;;;;;;;;;18.80;70.80;;;;;;4492520;31;20384;-78
2022/10/21 06:16:20;;;;;;;;;;;18.90;70.80;;;;;;4493087;31;19985;-78
2022/10/21 06:18:47;;;;;;;;;;;18.90;70.90;;;;;;4492322;31;19974;-77
2022/10/21 06:21:12;;;;;;;;;;;18.90;70.90;;;;;;4492223;31;19976;-78
2022/10/21 06:23:38;;;;;;;;;;;18.90;70.90;;;;;;4492673;31;20280;-78
2022/10/21 06:26:11;;;;;;;;;;;18.90;70.80;;;;;;4492682;32;19973;-77
2022/10/21 06:28:38;;;;;;;;;;;18.90;70.90;;;;;;4491143;32;20350;-78
2022/10/21 06:31:05;;;;;;;;;;;18.90;70.90;;;;;;4492990;32;20031;-78
2022/10/21 06:33:36;;;;;;;;;;;18.90;70.90;;;;;;4491903;32;19973;-78
2022/10/21 06:36:03;;;;;;;;;;;18.90;70.90;;;;;;4492203;32;20334;-78
2022/10/21 06:38:28;;;;;;;;;;;18.80;70.80;;;;;;4491384;32;20083;-78
2022/10/21 06:41:01;;;;;;;;;;;18.90;70.90;;;;;;4492582;32;20310;-78
2022/10/21 06:43:29;;;;;;;;;;;18.90;70.90;;;;;;4492778;32;19993;-78
2022/10/21 06:46:01;;;;;;;;;;;18.80;70.80;;;;;;4492762;32;20102;-78
2022/10/21 06:48:27;;;;;;;;;;;18.80;70.80;;;;;;4492480;32;20028;-78
2022/10/21 06:51:00;;;;;;;;;;;18.80;70.80;;;;;;4492234;32;20122;-78
2022/10/21 06:53:27;;;;;;;;;;;18.90;70.90;;;;;;4492470;32;20004;-79
2022/10/21 06:55:59;;;;;;;;;;;18.80;70.90;;;;;;4492955;32;20036;-78
2022/10/21 06:58:25;;;;;;;;;;;18.80;70.90;;;;;;4492643;32;20016;-78
2022/10/21 07:00:53;;;;;;;;;;;18.80;70.80;;;;;;4492354;32;19981;-78
2022/10/21 07:03:19;;;;;;;;;;;18.80;70.90;;;;;;4492092;32;20047;-78
2022/10/21 07:05:44;;;;;;;;;;;18.80;70.90;;;;;;4491242;32;20046;-77
2022/10/21 07:08:11;;;;;;;;;;;18.80;71.00;;;;;;4492489;32;20033;-77
2022/10/21 07:10:36;;;;;;;;;;;18.80;71.00;;;;;;4492215;32;19976;-78
2022/10/21 07:13:08;;;;;;;;;;;18.80;70.90;;;;;;4492322;32;19977;-79
2022/10/21 07:15:34;;;;;;;;;;;18.80;71.10;;;;;;4492504;32;20013;-83
2022/10/21 07:18:00;;;;;;;;;;;18.80;71.20;;;;;;4491969;32;20048;-80
2022/10/21 07:20:26;;;;;;;;;;;18.80;71.30;;;;;;4491932;32;19966;-78
2022/10/21 07:22:51;;;;;;;;;;;18.80;71.60;;;;;;4492154;32;19977;-79
2022/10/21 07:25:18;;;;;;;;;;;18.80;71.60;;;;;;4492216;32;19969;-78
2022/10/21 07:27:43;;;;;;;;;;;18.80;71.80;;;;;;4492192;32;20006;-78
2022/10/21 07:30:09;;;;;;;;;;;18.80;72.00;;;;;;4492510;32;19989;-79
2022/10/21 07:32:35;;;;;;;;;;;18.90;71.80;;;;;;4494949;31;20510;-80
2022/10/21 07:35:01;;;;;;;;;;;19.00;71.30;;;;;;4495124;31;19970;-79
2022/10/21 07:37:30;;;;;;;;;;;19.10;71.10;;;;;;4495213;31;20302;-78
2022/10/21 07:39:56;;;;;;;;;;;19.20;70.80;;;;;;4494855;31;19970;-80
2022/10/21 07:42:23;;;;;;;;;;;19.20;70.60;;;;;;4494907;31;20091;-81
2022/10/21 07:44:58;;;;;;;;;;;19.40;70.40;;;;;;4494877;31;20318;-80
2022/10/21 07:47:24;;;;;;;;;;;19.50;70.30;;;;;;4494755;31;20135;-80
2022/10/21 07:49:56;;;;;;;;;;;19.60;70.10;;;;;;4494059;31;20116;-79
2022/10/21 07:52:22;;;;;;;;;;;19.70;69.80;;;;;;4494998;31;19981;-80
2022/10/21 07:54:48;;;;;;;;;;;19.90;69.50;;;;;;4494533;31;20009;-75
2022/10/21 07:57:13;;;;;;;;;;;20.00;69.20;;;;;;4494373;31;20013;-79
2022/10/21 07:59:39;;;;;;;;;;;20.10;69.00;;;;;;4494250;31;20041;-83
2022/10/21 08:02:05;;;;;;;;;;;20.20;68.70;;;;;;4494649;31;19976;-81
2022/10/21 08:04:32;;;;;;;;;;;20.30;68.60;;;;;;4494129;31;19970;-78
2022/10/21 08:06:58;;;;;;;;;;;20.40;68.30;;;;;;4494434;31;19979;-79
2022/10/21 08:09:25;;;;;;;;;;;20.50;68.10;;;;;;4493952;31;20021;-79
2022/10/21 08:11:59;;;;;;;;;;;20.50;68.00;;;;;;4494465;31;20288;-79
2022/10/21 08:14:24;;;;;;;;;;;20.60;67.90;;;;;;4494202;31;20024;-79
2022/10/21 08:16:51;;;;;;;;;;;20.70;67.70;;;;;;4494467;31;20035;-80
2022/10/21 08:19:18;;;;;;;;;;;20.70;67.70;;;;;;4492564;31;19973;-80
2022/10/21 08:21:44;;;;;;;;;;;20.70;67.60;;;;;;4494647;31;20444;-80
2022/10/21 08:24:10;;;;;;;;;;;20.70;67.70;;;;;;4494174;31;19980;-78
2022/10/21 08:26:39;;;;;;;;;;;20.70;67.70;;;;;;4494351;31;20310;-81
2022/10/21 08:29:05;;;;;;;;;;;20.80;67.80;;;;;;4494260;31;19973;-81
2022/10/21 08:31:41;;;;;;;;;;;20.80;67.70;;;;;;4493104;31;20038;-80
2022/10/21 08:34:07;;;;;;;;;;;20.90;67.70;;;;;;4494241;31;19973;-80
2022/10/21 08:36:33;;;;;;;;;;;20.90;67.60;;;;;;4493838;31;19973;-78
2022/10/21 08:38:59;;;;;;;;;;;21.00;67.50;;;;;;4493860;31;20512;-79
2022/10/21 08:41:27;;;;;;;;;;;21.00;67.50;;;;;;4493675;31;19974;-79
2022/10/21 08:43:59;;;;;;;;;;;21.00;67.30;;;;;;4493609;31;19974;-78
2022/10/21 08:46:28;;;;;;;;;;;21.10;67.30;;;;;;4493979;31;20409;-79
2022/10/21 08:49:20;;;;;;;;;;;21.10;67.20;;;;;;4493777;31;20154;-78
2022/10/21 08:51:56;;;;;;;;;;;21.10;67.10;;;;;;4492066;31;19981;-78
2022/10/21 08:54:29;;;;;;;;;;;21.20;67.00;;;;;;4493893;31;20075;-79
2022/10/21 08:56:57;;;;;;;;;;;21.20;67.10;;;;;;4494197;31;20020;-81
2022/10/21 08:59:24;;;;;;;;;;;21.20;67.00;;;;;;4493676;31;20054;-78
2022/10/21 09:02:13;;;;;;;;;;;21.20;67.10;;;;;;4493486;31;20035;-80
2022/10/21 09:04:38;;;;;;;;;;;21.20;67.10;;;;;;4493803;31;20371;-75
2022/10/21 09:07:04;;;;;;;;;;;21.20;67.10;;;;;;4493640;31;20011;-77
2022/10/21 09:09:33;;;;;;;;;;;21.30;67.00;;;;;;4492860;31;20445;-78
2022/10/21 09:12:17;;;;;;;;;;;21.30;67.00;;;;;;4493601;31;19981;-77
2022/10/21 09:14:57;;;;;;;;;;;21.40;66.90;;;;;;4493422;31;20325;-77
2022/10/21 09:17:43;;;;;;;;;;;21.40;67.80;;;;;;4493568;31;19973;-77
2022/10/21 09:20:28;;;;;;;;;;;21.50;66.80;;;;;;4490486;31;19974;-76
2022/10/21 09:23:13;;;;;;;;;;;21.50;66.80;;;;;;4493418;31;20043;-78
2022/10/21 09:25:48;;;;;;;;;;;21.60;66.80;;;;;;4493091;31;19977;-75
2022/10/21 09:28:14;;;;;;;;;;;21.70;66.80;;;;;;4493206;31;20131;-77
2022/10/21 09:30:41;;;;;;;;;;;21.70;66.90;;;;;;4493461;31;19974;-79
2022/10/21 09:33:20;;;;;;;;;;;21.70;66.80;;;;;;4493409;31;20058;-80
2022/10/21 09:35:48;;;;;;;;;;;21.70;66.80;;;;;;4491743;31;19977;-78
2022/10/21 09:38:16;;;;;;;;;;;21.70;66.80;;;;;;4492951;31;19965;-78
2022/10/21 09:40:43;;;;;;;;;;;21.80;66.90;;;;;;4493149;31;20079;-79
2022/10/21 09:43:14;;;;;;;;;;;21.80;66.90;;;;;;4493121;31;19980;-77
2022/10/21 09:45:44;;;;;;;;;;;21.70;66.90;;;;;;4493414;31;20100;-80
2022/10/21 09:48:11;;;;;;;;;;;21.70;67.00;;;;;;4493236;31;20096;-78
2022/10/21 09:50:36;;;;;;;;;;;21.60;67.00;;;;;;4492696;31;20038;-79
2022/10/21 09:53:08;;;;;;;;;;;21.60;67.20;;;;;;4493232;31;20188;-78
2022/10/21 09:55:38;;;;;;;;;;;21.50;67.30;;;;;;4492427;31;20276;-78
2022/10/21 09:58:03;;;;;;;;;;;21.50;67.50;;;;;;4492865;31;19978;-76
2022/10/21 10:00:51;;;;;;;;;;;21.50;67.70;;;;;;4492815;31;19962;-77
2022/10/21 10:03:31;;;;;;;;;;;21.40;67.90;;;;;;4493080;31;20119;-77
2022/10/21 10:05:56;;;;;;;;;;;21.30;68.10;;;;;;4492962;31;19977;-76
2022/10/21 10:08:34;;;;;;;;;;;21.20;68.40;;;;;;4491682;31;20488;-76
2022/10/21 10:11:09;;;;;;;;;;;21.10;68.60;;;;;;4492294;31;19973;-75
2022/10/21 10:13:39;;;;;;;;;;;21.00;68.80;;;;;;4493133;31;19993;-76
2022/10/21 10:16:27;;;;;;;;;;;21.00;69.00;;;;;;4492934;31;19974;-75
2022/10/21 10:19:09;;;;;;;;;;;20.90;69.20;;;;;;4492608;31;19970;-78
2022/10/21 10:21:34;;;;;;;;;;;20.80;69.50;;;;;;4491065;31;20445;-80
2022/10/21 10:24:14;;;;;;;;;;;20.80;69.60;;;;;;4492766;31;19989;-80
2022/10/21 10:26:41;;;;;;;;;;;20.70;69.70;;;;;;4492631;32;19978;-77
2022/10/21 10:29:15;;;;;;;;;;;20.70;70.00;;;;;;4492739;32;19993;-75
2022/10/21 10:31:52;;;;;;;;;;;20.60;70.20;;;;;;4492489;32;20046;-74
2022/10/21 10:34:38;;;;;;;;;;;20.60;70.40;;;;;;4492722;32;20414;-77
2022/10/21 10:37:05;;;;;;;;;;;20.50;70.30;;;;;;4492809;32;20002;-76
2022/10/21 10:39:33;;;;;;;;;;;20.50;70.60;;;;;;4492472;32;20054;-75
2022/10/21 10:42:00;;;;;;;;;;;20.50;70.60;;;;;;4491298;32;19983;-77
2022/10/21 10:44:27;;;;;;;;;;;20.50;70.80;;;;;;4492580;32;20111;-80
2022/10/21 10:46:57;;;;;;;;;;;20.40;71.00;;;;;;4492729;32;19997;-76
2022/10/21 10:49:25;;;;;;;;;;;20.40;70.90;;;;;;4478493;32;20034;-73
2022/10/21 10:52:10;;;;;;;;;;;20.30;71.30;;;;;;4491765;32;20012;-72
2022/10/21 10:55:14;;;;;;;;;;;20.30;71.40;;;;;;4491708;32;20035;-73
2022/10/21 10:58:01;;;;;;;;;;;20.30;71.60;;;;;;4491655;32;19985;-74
2022/10/21 11:00:46;;;;;;;;;;;20.30;71.60;;;;;;4491647;32;19981;-73
2022/10/21 11:03:36;;;;;;;;;;;20.30;71.60;;;;;;4491353;32;20043;-75
2022/10/21 11:06:14;;;;;;;;;;;20.20;71.90;;;;;;4492532;31;19977;-74
2022/10/21 11:08:46;;;;;;;;;;;20.30;71.90;;;;;;4494985;31;19974;-74
2022/10/21 11:11:35;;;;;;;;;;;20.20;71.90;;;;;;4495149;31;19977;-74
2022/10/21 11:14:01;;;;;;;;;;;20.20;71.90;;;;;;4491023;31;20413;-74
2022/10/21 11:16:30;;;;;;;;;;;20.20;72.10;;;;;;4494910;31;19957;-74
2022/10/21 11:19:07;;;;;;;;;;;20.20;72.20;;;;;;4493773;31;19994;-74
2022/10/21 11:21:53;;;;;;;;;;;20.20;72.20;;;;;;4495368;31;19995;-74
2022/10/21 11:24:19;;;;;;;;;;;20.10;72.00;;;;;;4495001;31;19989;-74
2022/10/21 11:26:51;;;;;;;;;;;20.10;72.00;;;;;;4495060;31;19993;-80
2022/10/21 11:29:23;;;;;;;;;;;20.10;72.10;;;;;;4494760;31;19973;-74
2022/10/21 11:31:54;;;;;;;;;;;20.10;72.10;;;;;;4493811;31;19982;-74
2022/10/21 11:34:25;;;;;;;;;;;20.10;72.10;;;;;;4494980;31;20318;-74
2022/10/21 11:37:04;;;;;;;;;;;20.10;72.10;;;;;;4494641;31;20040;-74
2022/10/21 11:39:35;;;;;;;;;;;20.10;72.10;;;;;;4495173;31;20302;-74
2022/10/21 11:42:01;;;;;;;;;;;20.10;72.20;;;;;;4494905;31;20067;-77
2022/10/21 11:44:33;;;;;;;;;;;20.00;72.20;;;;;;4494513;31;20091;-76
2022/10/21 11:46:59;;;;;;;;;;;20.00;72.20;;;;;;4494499;31;20031;-76
2022/10/21 11:49:44;;;;;;;;;;;20.00;72.30;;;;;;4494492;31;20111;-76
2022/10/21 11:52:15;;;;;;;;;;;20.00;72.40;;;;;;4494925;31;20055;-76
2022/10/21 11:54:49;;;;;;;;;;;20.00;72.30;;;;;;4495030;31;19977;-76
2022/10/21 11:57:23;;;;;;;;;;;20.00;72.40;;;;;;4494691;31;20032;-76
2022/10/21 11:59:51;;;;;;;;;;;20.00;72.50;;;;;;4494772;31;19977;-75
2022/10/21 12:02:23;;;;;;;;;;;20.00;72.60;;;;;;4494778;31;20123;-74
2022/10/21 12:04:58;;;;;;;;;;;20.00;72.50;;;;;;4494823;31;20039;-75
2022/10/21 12:07:30;;;;;;;;;;;20.00;72.60;;;;;;4494569;31;19989;-74
2022/10/21 12:09:58;;;;;;;;;;;20.00;72.60;;;;;;4494107;31;19981;-74
2022/10/21 12:12:36;;;;;;;;;;;20.00;72.70;;;;;;4494477;31;20478;-75
2022/10/21 12:15:03;;;;;;;;;;;20.00;72.90;;;;;;4494535;31;19985;-76
2022/10/21 12:17:33;;;;;;;;;;;20.00;73.00;;;;;;4493586;31;20054;-77
2022/10/21 12:20:07;;;;;;;;;;;19.90;72.90;;;;;;4493936;31;20127;-77
2022/10/21 12:22:33;;;;;;;;;;;20.00;73.40;;;;;;4494542;31;19981;-78
2022/10/21 12:25:10;;;;;;;;;;;19.90;73.90;;;;;;4492911;31;20194;-80
2022/10/21 12:27:51;;;;;;;;;;;19.90;73.40;;;;;;4493982;31;19969;-81
2022/10/21 12:30:20;;;;;;;;;;;20.00;73.40;;;;;;4494085;31;19977;-81
2022/10/21 12:33:05;;;;;;;;;;;19.90;73.40;;;;;;4494165;31;20035;-80
2022/10/21 12:35:40;;;;;;;;;;;19.90;73.30;;;;;;4494114;31;19983;-79
2022/10/21 12:38:19;;;;;;;;;;;19.90;73.40;;;;;;4493991;31;19992;-75
2022/10/21 12:41:23;;;;;;;;;;;19.90;73.30;;;;;;4493234;31;20454;-78
2022/10/21 12:43:57;;;;;;;;;;;19.90;73.60;;;;;;4494220;31;19977;-75
2022/10/21 12:46:25;;;;;;;;;;;19.90;73.90;;;;;;4493800;31;20379;-75
2022/10/21 12:48:51;;;;;;;;;;;19.90;74.20;;;;;;4493970;31;20009;-80
2022/10/21 12:51:23;;;;;;;;;;;19.90;74.30;;;;;;4493907;31;19986;-77
2022/10/21 12:53:50;;;;;;;;;;;19.90;74.40;;;;;;4493949;31;19981;-75
2022/10/21 12:56:28;;;;;;;;;;;19.90;74.30;;;;;;4494034;31;19969;-76
2022/10/21 12:58:57;;;;;;;;;;;19.90;74.30;;;;;;4493889;31;20470;-75
2022/10/21 13:01:38;;;;;;;;;;;19.90;73.90;;;;;;4493812;31;19985;-75
2022/10/21 13:04:04;;;;;;;;;;;19.90;73.90;;;;;;4493967;31;20040;-75
2022/10/21 13:06:51;;;;;;;;;;;19.90;74.00;;;;;;4493594;31;20101;-76
2022/10/21 13:09:35;;;;;;;;;;;19.90;73.80;;;;;;4493297;31;19973;-77
2022/10/21 13:12:03;;;;;;;;;;;19.90;73.90;;;;;;4493057;31;20100;-74
2022/10/21 13:14:38;;;;;;;;;;;19.90;74.10;;;;;;4493597;31;19973;-76
2022/10/21 13:17:21;;;;;;;;;;;19.90;74.50;;;;;;4494165;31;19970;-76
2022/10/21 13:20:14;;;;;;;;;;;19.90;74.70;;;;;;4493472;31;20418;-75
2022/10/21 13:22:41;;;;;;;;;;;19.90;74.50;;;;;;4480421;31;19989;-79
2022/10/21 13:25:20;;;;;;;;;;;19.90;74.70;;;;;;4493197;31;19977;-76
2022/10/21 13:28:22;;;;;;;;;;;19.90;75.00;;;;;;4493228;31;20300;-77
2022/10/21 13:30:47;;;;;;;;;;;19.90;74.80;;;;;;4459439;32;20128;-75
2022/10/21 13:33:16;;;;;;;;;;;19.90;74.50;;;;;;4485846;31;19973;-75
2022/10/21 13:35:49;;;;;;;;;;;19.90;74.50;;;;;;4491476;31;20480;-75
2022/10/21 13:38:21;;;;;;;;;;;19.90;74.40;;;;;;4492654;31;20013;-75
2022/10/21 13:40:49;;;;;;;;;;;19.80;74.60;;;;;;4492964;31;19985;-75
2022/10/21 13:43:16;;;;;;;;;;;19.80;74.40;;;;;;4492989;31;20019;-77
2022/10/21 13:45:45;;;;;;;;;;;19.80;74.30;;;;;;4492812;31;19978;-75
2022/10/21 13:48:16;;;;;;;;;;;19.90;74.40;;;;;;4492894;31;20103;-75
2022/10/21 13:50:44;;;;;;;;;;;19.80;74.40;;;;;;4493154;31;20387;-75
2022/10/21 13:53:21;;;;;;;;;;;19.90;74.20;;;;;;4492970;31;20439;-75
2022/10/21 13:56:00;;;;;;;;;;;19.80;74.20;;;;;;4493080;31;19992;-74
2022/10/21 13:58:27;;;;;;;;;;;19.80;74.20;;;;;;4492865;31;20114;-74
2022/10/21 14:00:53;;;;;;;;;;;19.90;74.30;;;;;;4491820;31;20040;-74
2022/10/21 14:03:20;;;;;;;;;;;19.80;74.50;;;;;;4492909;31;19966;-75
2022/10/21 14:05:51;;;;;;;;;;;19.90;74.40;;;;;;4492440;31;20338;-75
2022/10/21 14:08:23;;;;;;;;;;;19.80;74.50;;;;;;4492705;31;20054;-75
2022/10/21 14:10:48;;;;;;;;;;;19.80;74.30;;;;;;4492428;31;19990;-74
2022/10/21 14:13:15;;;;;;;;;;;19.90;74.70;;;;;;4492745;31;20479;-74
2022/10/21 14:15:43;;;;;;;;;;;19.80;74.40;;;;;;4492609;31;20386;-74
2022/10/21 14:18:20;;;;;;;;;;;19.80;74.50;;;;;;4492626;31;20043;-75
2022/10/21 14:20:47;;;;;;;;;;;19.80;74.40;;;;;;4492983;31;20095;-74
2022/10/21 14:23:16;;;;;;;;;;;19.80;74.70;;;;;;4492399;31;19969;-75
2022/10/21 14:25:42;;;;;;;;;;;19.80;75.10;;;;;;4492577;31;19989;-74
2022/10/21 14:28:08;;;;;;;;;;;19.80;74.60;;;;;;4492670;32;19979;-74
2022/10/21 14:30:35;;;;;;;;;;;19.90;74.70;;;;;;4492622;32;20399;-74
2022/10/21 14:33:02;;;;;;;;;;;19.80;74.60;;;;;;4492847;32;20080;-74